sensor_id;sensor_type;location;lat;lon;timestamp;pressure;altitude;pressure_sealevel;temperature;humidity
33697;BME280;20031;43.416;23.232;2023-08-06T00:02:20;98748.59;;;20.19;83.96
33697;BME280;20031;43.416;23.232;2023-08-06T00:04:52;98759.44;;;20.17;84.16
33697;BME280;20031;43.416;23.232;2023-08-06T00:07:24;98763.13;;;20.16;84.23
33697;BME280;20031;43.416;23.232;2023-08-06T00:09:57;98777.94;;;20.17;84.56
33697;BME280;20031;43.416;23.232;2023-08-06T00:12:30;98791.81;;;20.29;85.23
33697;BME280;20031;43.416;23.232;2023-08-06T00:15:00;98773.09;;;20.36;84.72
33697;BME280;20031;43.416;23.232;2023-08-06T00:17:33;98735.75;;;20.32;84.58
33697;BME280;20031;43.416;23.232;2023-08-06T00:20:06;98740.00;;;20.33;84.93
33697;BME280;20031;43.416;23.232;2023-08-06T00:22:38;98775.22;;;20.39;85.28
33697;BME280;20031;43.416;23.232;2023-08-06T00:25:11;98780.53;;;20.39;85.11
33697;BME280;20031;43.416;23.232;2023-08-06T00:27:43;98773.69;;;20.43;85.11
33697;BME280;20031;43.416;23.232;2023-08-06T00:30:15;98779.75;;;20.43;84.62
33697;BME280;20031;43.416;23.232;2023-08-06T00:32:48;98780.34;;;20.50;84.87
33697;BME280;20031;43.416;23.232;2023-08-06T00:35:20;98776.94;;;20.49;84.74
33697;BME280;20031;43.416;23.232;2023-08-06T00:37:53;98766.63;;;20.53;84.65
33697;BME280;20031;43.416;23.232;2023-08-06T00:40:25;98757.63;;;20.54;84.75
33697;BME280;20031;43.416;23.232;2023-08-06T00:42:59;98755.00;;;20.54;84.17
33697;BME280;20031;43.416;23.232;2023-08-06T00:45:33;98745.47;;;20.58;84.60
33697;BME280;20031;43.416;23.232;2023-08-06T00:48:05;98739.44;;;20.62;84.71
33697;BME280;20031;43.416;23.232;2023-08-06T00:50:36;98752.53;;;20.79;84.52
33697;BME280;20031;43.416;23.232;2023-08-06T00:53:07;98773.97;;;20.77;84.78
33697;BME280;20031;43.416;23.232;2023-08-06T00:55:35;98780.38;;;20.81;84.52
33697;BME280;20031;43.416;23.232;2023-08-06T00:58:01;98748.59;;;20.81;84.20
33697;BME280;20031;43.416;23.232;2023-08-06T01:00:26;98745.13;;;20.76;83.89
33697;BME280;20031;43.416;23.232;2023-08-06T01:02:53;98741.38;;;20.72;84.17
33697;BME280;20031;43.416;23.232;2023-08-06T01:05:20;98723.09;;;20.70;83.70
33697;BME280;20031;43.416;23.232;2023-08-06T01:13:32;98735.22;;;20.66;83.85
33697;BME280;20031;43.416;23.232;2023-08-06T01:15:58;98728.88;;;20.67;83.73
33697;BME280;20031;43.416;23.232;2023-08-06T01:18:28;98727.28;;;20.66;83.09
33697;BME280;20031;43.416;23.232;2023-08-06T01:20:53;98717.47;;;20.62;83.07
33697;BME280;20031;43.416;23.232;2023-08-06T01:23:19;98708.22;;;20.64;83.45
33697;BME280;20031;43.416;23.232;2023-08-06T01:28:59;98701.06;;;20.60;82.99
33697;BME280;20031;43.416;23.232;2023-08-06T01:31:35;98703.97;;;20.58;83.71
33697;BME280;20031;43.416;23.232;2023-08-06T01:34:03;98714.03;;;20.61;83.42
33697;BME280;20031;43.416;23.232;2023-08-06T01:36:30;98724.38;;;20.68;83.44
33697;BME280;20031;43.416;23.232;2023-08-06T01:38:56;98731.53;;;20.67;83.75
33697;BME280;20031;43.416;23.232;2023-08-06T01:41:22;98743.50;;;20.70;82.92
33697;BME280;20031;43.416;23.232;2023-08-06T01:43:48;98739.47;;;20.67;83.09
33697;BME280;20031;43.416;23.232;2023-08-06T01:46:13;98733.38;;;20.67;83.92
33697;BME280;20031;43.416;23.232;2023-08-06T01:48:39;98709.56;;;20.67;83.68
33697;BME280;20031;43.416;23.232;2023-08-06T01:51:05;98682.00;;;20.63;83.64
33697;BME280;20031;43.416;23.232;2023-08-06T01:53:31;98646.00;;;20.57;83.37
33697;BME280;20031;43.416;23.232;2023-08-06T01:55:57;98653.63;;;20.48;83.40
33697;BME280;20031;43.416;23.232;2023-08-06T01:58:22;98654.16;;;20.50;83.44
33697;BME280;20031;43.416;23.232;2023-08-06T02:00:48;98661.06;;;20.56;83.07
33697;BME280;20031;43.416;23.232;2023-08-06T02:03:13;98656.59;;;20.62;83.37
33697;BME280;20031;43.416;23.232;2023-08-06T02:05:39;98659.28;;;20.67;83.06
33697;BME280;20031;43.416;23.232;2023-08-06T02:08:05;98668.81;;;20.68;82.98
33697;BME280;20031;43.416;23.232;2023-08-06T02:10:30;98671.78;;;20.76;83.32
33697;BME280;20031;43.416;23.232;2023-08-06T02:12:56;98682.69;;;20.80;83.15
33697;BME280;20031;43.416;23.232;2023-08-06T02:15:21;98690.56;;;20.75;82.89
33697;BME280;20031;43.416;23.232;2023-08-06T02:17:47;98698.53;;;20.75;82.63
33697;BME280;20031;43.416;23.232;2023-08-06T02:20:12;98694.81;;;20.76;82.96
33697;BME280;20031;43.416;23.232;2023-08-06T02:22:37;98679.22;;;20.74;82.86
33697;BME280;20031;43.416;23.232;2023-08-06T02:25:03;98683.09;;;20.67;82.44
33697;BME280;20031;43.416;23.232;2023-08-06T02:27:29;98682.28;;;20.61;82.99
33697;BME280;20031;43.416;23.232;2023-08-06T02:29:54;98680.94;;;20.59;83.17
33697;BME280;20031;43.416;23.232;2023-08-06T02:32:19;98670.59;;;20.57;83.51
33697;BME280;20031;43.416;23.232;2023-08-06T02:34:45;98663.94;;;20.50;83.69
33697;BME280;20031;43.416;23.232;2023-08-06T02:37:10;98636.97;;;20.53;83.78
33697;BME280;20031;43.416;23.232;2023-08-06T02:39:36;98652.81;;;20.48;83.79
33697;BME280;20031;43.416;23.232;2023-08-06T02:42:07;98640.06;;;20.40;83.26
33697;BME280;20031;43.416;23.232;2023-08-06T02:44:33;98673.44;;;20.46;84.75
33697;BME280;20031;43.416;23.232;2023-08-06T02:46:59;98697.56;;;20.54;84.98
33697;BME280;20031;43.416;23.232;2023-08-06T02:49:25;98686.53;;;20.67;84.89
33697;BME280;20031;43.416;23.232;2023-08-06T02:51:50;98677.38;;;20.80;84.93
33697;BME280;20031;43.416;23.232;2023-08-06T02:54:17;98677.84;;;20.72;84.26
33697;BME280;20031;43.416;23.232;2023-08-06T02:56:43;98697.91;;;20.68;84.16
33697;BME280;20031;43.416;23.232;2023-08-06T02:59:10;98680.56;;;20.77;84.25
33697;BME280;20031;43.416;23.232;2023-08-06T03:01:35;98673.66;;;20.76;84.06
33697;BME280;20031;43.416;23.232;2023-08-06T03:04:01;98681.59;;;20.71;84.13
33697;BME280;20031;43.416;23.232;2023-08-06T03:06:27;98685.44;;;20.63;83.92
33697;BME280;20031;43.416;23.232;2023-08-06T03:08:52;98662.50;;;20.69;83.88
33697;BME280;20031;43.416;23.232;2023-08-06T03:11:18;98672.03;;;20.70;84.06
33697;BME280;20031;43.416;23.232;2023-08-06T03:13:43;98695.34;;;20.78;84.27
33697;BME280;20031;43.416;23.232;2023-08-06T03:16:09;98712.38;;;20.87;84.61
33697;BME280;20031;43.416;23.232;2023-08-06T03:18:34;98706.78;;;20.83;85.09
33697;BME280;20031;43.416;23.232;2023-08-06T03:20:59;98689.59;;;20.86;85.01
33697;BME280;20031;43.416;23.232;2023-08-06T03:23:25;98682.44;;;20.81;84.40
33697;BME280;20031;43.416;23.232;2023-08-06T03:25:50;98679.00;;;20.81;84.42
33697;BME280;20031;43.416;23.232;2023-08-06T03:28:16;98677.91;;;20.77;84.23
33697;BME280;20031;43.416;23.232;2023-08-06T03:30:41;98672.34;;;20.78;84.31
33697;BME280;20031;43.416;23.232;2023-08-06T03:33:07;98674.22;;;20.83;84.16
33697;BME280;20031;43.416;23.232;2023-08-06T03:35:32;98678.47;;;20.84;83.90
33697;BME280;20031;43.416;23.232;2023-08-06T03:37:58;98674.22;;;20.83;84.12
33697;BME280;20031;43.416;23.232;2023-08-06T03:40:23;98681.13;;;20.84;84.23
33697;BME280;20031;43.416;23.232;2023-08-06T03:42:49;98687.72;;;20.81;83.48
33697;BME280;20031;43.416;23.232;2023-08-06T03:45:14;98705.53;;;20.91;83.83
33697;BME280;20031;43.416;23.232;2023-08-06T03:47:40;98714.28;;;21.01;83.63
33697;BME280;20031;43.416;23.232;2023-08-06T03:50:05;98706.66;;;21.09;83.72
33697;BME280;20031;43.416;23.232;2023-08-06T03:52:31;98694.00;;;21.16;83.66
33697;BME280;20031;43.416;23.232;2023-08-06T03:54:56;98687.63;;;21.17;82.83
33697;BME280;20031;43.416;23.232;2023-08-06T03:57:22;98696.06;;;21.09;82.68
33697;BME280;20031;43.416;23.232;2023-08-06T03:59:47;98691.81;;;21.03;82.87
33697;BME280;20031;43.416;23.232;2023-08-06T04:02:13;98681.47;;;21.02;83.10
33697;BME280;20031;43.416;23.232;2023-08-06T04:04:38;98662.13;;;21.01;82.63
33697;BME280;20031;43.416;23.232;2023-08-06T04:07:04;98655.75;;;20.98;82.43
33697;BME280;20031;43.416;23.232;2023-08-06T04:09:29;98652.00;;;20.89;82.37
33697;BME280;20031;43.416;23.232;2023-08-06T04:11:55;98663.91;;;20.86;82.46
33697;BME280;20031;43.416;23.232;2023-08-06T04:14:21;98663.69;;;20.93;83.06
33697;BME280;20031;43.416;23.232;2023-08-06T04:16:47;98675.63;;;21.00;83.39
33697;BME280;20031;43.416;23.232;2023-08-06T04:19:12;98679.66;;;21.12;83.60
33697;BME280;20031;43.416;23.232;2023-08-06T04:21:37;98681.78;;;21.15;83.56
33697;BME280;20031;43.416;23.232;2023-08-06T04:24:03;98656.09;;;21.11;83.79
33697;BME280;20031;43.416;23.232;2023-08-06T04:26:29;98640.44;;;21.04;83.37
33697;BME280;20031;43.416;23.232;2023-08-06T04:28:54;98625.56;;;20.99;83.45
33697;BME280;20031;43.416;23.232;2023-08-06T04:31:21;98639.88;;;20.98;83.44
33697;BME280;20031;43.416;23.232;2023-08-06T04:33:46;98641.75;;;21.02;83.03
33697;BME280;20031;43.416;23.232;2023-08-06T04:36:12;98628.50;;;20.97;83.07
33697;BME280;20031;43.416;23.232;2023-08-06T04:38:37;98646.75;;;20.94;82.80
33697;BME280;20031;43.416;23.232;2023-08-06T04:41:03;98651.53;;;21.01;83.89
33697;BME280;20031;43.416;23.232;2023-08-06T04:43:29;98647.09;;;21.12;83.55
33697;BME280;20031;43.416;23.232;2023-08-06T04:45:55;98643.97;;;21.30;83.41
33697;BME280;20031;43.416;23.232;2023-08-06T04:48:22;98633.38;;;21.40;83.09
33697;BME280;20031;43.416;23.232;2023-08-06T04:50:49;98637.38;;;21.42;83.06
33697;BME280;20031;43.416;23.232;2023-08-06T04:53:15;98636.59;;;21.42;82.70
33697;BME280;20031;43.416;23.232;2023-08-06T04:55:41;98639.75;;;21.44;81.59
33697;BME280;20031;43.416;23.232;2023-08-06T04:58:09;98639.50;;;21.45;81.63
33697;BME280;20031;43.416;23.232;2023-08-06T05:00:34;98645.34;;;21.47;80.95
33697;BME280;20031;43.416;23.232;2023-08-06T05:03:00;98650.44;;;21.63;81.29
33697;BME280;20031;43.416;23.232;2023-08-06T05:05:29;98653.38;;;21.72;81.06
33697;BME280;20031;43.416;23.232;2023-08-06T05:07:56;98655.47;;;21.80;80.85
33697;BME280;20031;43.416;23.232;2023-08-06T05:10:25;98653.38;;;21.87;80.69
33697;BME280;20031;43.416;23.232;2023-08-06T05:12:50;98655.25;;;21.96;80.14
33697;BME280;20031;43.416;23.232;2023-08-06T05:15:16;98653.91;;;22.03;80.07
33697;BME280;20031;43.416;23.232;2023-08-06T05:17:41;98651.25;;;21.94;78.99
33697;BME280;20031;43.416;23.232;2023-08-06T05:20:07;98643.28;;;21.94;79.69
33697;BME280;20031;43.416;23.232;2023-08-06T05:22:32;98639.06;;;22.03;79.84
33697;BME280;20031;43.416;23.232;2023-08-06T05:24:58;98639.84;;;22.08;79.61
33697;BME280;20031;43.416;23.232;2023-08-06T05:27:23;98636.41;;;22.17;80.11
33697;BME280;20031;43.416;23.232;2023-08-06T05:29:49;98642.25;;;22.29;79.69
33697;BME280;20031;43.416;23.232;2023-08-06T05:32:14;98627.41;;;22.38;79.36
33697;BME280;20031;43.416;23.232;2023-08-06T05:34:39;98633.50;;;22.39;78.51
33697;BME280;20031;43.416;23.232;2023-08-06T05:37:06;98641.69;;;22.47;77.95
33697;BME280;20031;43.416;23.232;2023-08-06T05:39:32;98648.84;;;22.57;77.50
33697;BME280;20031;43.416;23.232;2023-08-06T05:41:57;98653.88;;;22.68;77.09
33697;BME280;20031;43.416;23.232;2023-08-06T05:44:23;98641.94;;;22.65;76.33
33697;BME280;20031;43.416;23.232;2023-08-06T05:46:49;98640.88;;;22.66;77.13
33697;BME280;20031;43.416;23.232;2023-08-06T05:49:15;98646.69;;;22.73;76.56
33697;BME280;20031;43.416;23.232;2023-08-06T05:51:41;98648.22;;;22.84;76.53
33697;BME280;20031;43.416;23.232;2023-08-06T05:54:06;98645.31;;;22.86;77.01
33697;BME280;20031;43.416;23.232;2023-08-06T05:56:32;98650.06;;;22.99;77.12
33697;BME280;20031;43.416;23.232;2023-08-06T05:58:57;98650.56;;;23.06;76.66
33697;BME280;20031;43.416;23.232;2023-08-06T06:01:23;98658.22;;;23.17;76.99
33697;BME280;20031;43.416;23.232;2023-08-06T06:03:48;98654.75;;;23.21;76.38
33697;BME280;20031;43.416;23.232;2023-08-06T06:06:13;98656.34;;;23.22;75.74
33697;BME280;20031;43.416;23.232;2023-08-06T06:08:39;98670.13;;;23.29;75.04
33697;BME280;20031;43.416;23.232;2023-08-06T06:11:04;98669.09;;;23.30;74.17
33697;BME280;20031;43.416;23.232;2023-08-06T06:13:30;98674.13;;;23.27;73.95
33697;BME280;20031;43.416;23.232;2023-08-06T06:15:55;98666.16;;;23.32;74.07
33697;BME280;20031;43.416;23.232;2023-08-06T06:18:21;98677.00;;;23.35;73.52
33697;BME280;20031;43.416;23.232;2023-08-06T06:20:47;98690.84;;;23.37;73.22
33697;BME280;20031;43.416;23.232;2023-08-06T06:23:12;98694.84;;;23.30;73.80
33697;BME280;20031;43.416;23.232;2023-08-06T06:25:51;98687.97;;;23.29;74.38
33697;BME280;20031;43.416;23.232;2023-08-06T06:28:21;98699.66;;;23.33;74.86
33697;BME280;20031;43.416;23.232;2023-08-06T06:30:46;98707.03;;;23.41;74.76
33697;BME280;20031;43.416;23.232;2023-08-06T06:33:11;98698.69;;;23.62;75.47
33697;BME280;20031;43.416;23.232;2023-08-06T06:35:37;98700.97;;;23.83;74.49
33697;BME280;20031;43.416;23.232;2023-08-06T06:38:03;98698.44;;;24.07;74.36
33697;BME280;20031;43.416;23.232;2023-08-06T06:40:28;98711.66;;;24.16;73.34
33697;BME280;20031;43.416;23.232;2023-08-06T06:42:53;98702.47;;;24.32;72.93
33697;BME280;20031;43.416;23.232;2023-08-06T06:45:19;98713.84;;;24.43;71.72
33697;BME280;20031;43.416;23.232;2023-08-06T06:47:44;98713.78;;;24.53;72.08
33697;BME280;20031;43.416;23.232;2023-08-06T06:50:10;98704.00;;;24.71;72.80
33697;BME280;20031;43.416;23.232;2023-08-06T06:52:35;98693.13;;;24.91;71.84
33697;BME280;20031;43.416;23.232;2023-08-06T06:55:01;98697.84;;;24.99;70.46
33697;BME280;20031;43.416;23.232;2023-08-06T06:57:26;98699.69;;;24.75;69.51
33697;BME280;20031;43.416;23.232;2023-08-06T06:59:52;98693.03;;;24.78;69.45
33697;BME280;20031;43.416;23.232;2023-08-06T07:02:17;98697.97;;;25.13;68.83
33697;BME280;20031;43.416;23.232;2023-08-06T07:04:43;98695.84;;;25.56;68.40
33697;BME280;20031;43.416;23.232;2023-08-06T07:07:08;98703.16;;;25.87;67.36
33697;BME280;20031;43.416;23.232;2023-08-06T07:09:33;98700.94;;;26.26;66.94
33697;BME280;20031;43.416;23.232;2023-08-06T07:11:59;98711.88;;;26.29;64.29
33697;BME280;20031;43.416;23.232;2023-08-06T07:14:25;98708.00;;;26.04;63.92
33697;BME280;20031;43.416;23.232;2023-08-06T07:16:51;98719.88;;;26.11;64.70
33697;BME280;20031;43.416;23.232;2023-08-06T07:19:16;98721.34;;;26.04;63.03
33697;BME280;20031;43.416;23.232;2023-08-06T07:21:42;98732.66;;;25.96;63.34
33697;BME280;20031;43.416;23.232;2023-08-06T07:24:07;98734.25;;;25.78;63.17
33697;BME280;20031;43.416;23.232;2023-08-06T07:26:33;98729.88;;;25.64;63.02
33697;BME280;20031;43.416;23.232;2023-08-06T07:28:58;98726.75;;;25.80;63.50
33697;BME280;20031;43.416;23.232;2023-08-06T07:31:23;98722.41;;;26.21;65.28
33697;BME280;20031;43.416;23.232;2023-08-06T07:33:49;98723.19;;;26.85;63.20
33697;BME280;20031;43.416;23.232;2023-08-06T07:36:14;98723.75;;;27.00;62.04
33697;BME280;20031;43.416;23.232;2023-08-06T07:38:41;98721.22;;;26.90;59.79
33697;BME280;20031;43.416;23.232;2023-08-06T07:41:06;98725.47;;;26.78;59.30
33697;BME280;20031;43.416;23.232;2023-08-06T07:43:31;98727.06;;;26.79;60.82
33697;BME280;20031;43.416;23.232;2023-08-06T07:45:58;98739.16;;;26.90;60.86
33697;BME280;20031;43.416;23.232;2023-08-06T07:48:24;98740.38;;;26.97;60.70
33697;BME280;20031;43.416;23.232;2023-08-06T07:50:54;98730.44;;;26.84;60.61
33697;BME280;20031;43.416;23.232;2023-08-06T07:53:21;98728.88;;;26.97;60.91
33697;BME280;20031;43.416;23.232;2023-08-06T07:55:51;98724.75;;;27.18;60.12
33697;BME280;20031;43.416;23.232;2023-08-06T07:58:17;98709.88;;;27.52;59.77
33697;BME280;20031;43.416;23.232;2023-08-06T08:00:43;98712.81;;;27.77;58.53
33697;BME280;20031;43.416;23.232;2023-08-06T08:03:13;98708.97;;;28.05;57.69
33697;BME280;20031;43.416;23.232;2023-08-06T08:05:40;98702.38;;;27.89;56.64
33697;BME280;20031;43.416;23.232;2023-08-06T08:08:06;98708.75;;;27.79;55.95
33697;BME280;20031;43.416;23.232;2023-08-06T08:10:32;98705.00;;;27.67;56.53
33697;BME280;20031;43.416;23.232;2023-08-06T08:12:57;98702.09;;;27.77;57.28
33697;BME280;20031;43.416;23.232;2023-08-06T08:15:24;98713.13;;;27.76;56.59
33697;BME280;20031;43.416;23.232;2023-08-06T08:17:51;98717.38;;;27.77;57.43
33697;BME280;20031;43.416;23.232;2023-08-06T08:20:17;98718.31;;;27.45;56.94
33697;BME280;20031;43.416;23.232;2023-08-06T08:22:43;98721.56;;;27.29;57.99
33697;BME280;20031;43.416;23.232;2023-08-06T08:25:08;98726.81;;;27.21;58.98
33697;BME280;20031;43.416;23.232;2023-08-06T08:27:34;98730.88;;;27.31;59.93
33697;BME280;20031;43.416;23.232;2023-08-06T08:30:00;98734.25;;;27.50;59.80
33697;BME280;20031;43.416;23.232;2023-08-06T08:32:26;98728.88;;;27.77;59.13
33697;BME280;20031;43.416;23.232;2023-08-06T08:34:51;98723.16;;;28.05;58.07
33697;BME280;20031;43.416;23.232;2023-08-06T08:37:17;98726.19;;;28.47;56.73
33697;BME280;20031;43.416;23.232;2023-08-06T08:39:42;98722.88;;;28.29;54.21
33697;BME280;20031;43.416;23.232;2023-08-06T08:42:09;98712.88;;;28.42;55.29
33697;BME280;20031;43.416;23.232;2023-08-06T08:44:35;98719.22;;;28.46;55.22
33697;BME280;20031;43.416;23.232;2023-08-06T08:47:08;98711.63;;;28.92;55.35
33697;BME280;20031;43.416;23.232;2023-08-06T08:49:37;98705.69;;;29.03;52.77
33697;BME280;20031;43.416;23.232;2023-08-06T08:52:04;98701.63;;;29.14;53.90
33697;BME280;20031;43.416;23.232;2023-08-06T08:54:37;98700.94;;;29.39;54.23
33697;BME280;20031;43.416;23.232;2023-08-06T08:57:03;98700.50;;;29.62;53.42
33697;BME280;20031;43.416;23.232;2023-08-06T08:59:29;98701.81;;;29.73;53.24
33697;BME280;20031;43.416;23.232;2023-08-06T09:01:55;98693.31;;;29.96;52.83
33697;BME280;20031;43.416;23.232;2023-08-06T09:04:22;98688.22;;;30.29;51.62
33697;BME280;20031;43.416;23.232;2023-08-06T09:06:50;98682.56;;;29.88;50.92
33697;BME280;20031;43.416;23.232;2023-08-06T09:09:22;98674.44;;;29.71;50.26
33697;BME280;20031;43.416;23.232;2023-08-06T09:11:51;98663.44;;;29.89;50.84
33697;BME280;20031;43.416;23.232;2023-08-06T09:14:16;98668.44;;;29.57;51.25
33697;BME280;20031;43.416;23.232;2023-08-06T09:16:43;98662.94;;;29.62;50.38
33697;BME280;20031;43.416;23.232;2023-08-06T09:19:13;98671.34;;;29.22;50.31
33697;BME280;20031;43.416;23.232;2023-08-06T09:21:41;98672.31;;;28.87;51.37
33697;BME280;20031;43.416;23.232;2023-08-06T09:24:10;98668.78;;;29.09;52.03
33697;BME280;20031;43.416;23.232;2023-08-06T09:26:37;98659.91;;;29.55;52.12
33697;BME280;20031;43.416;23.232;2023-08-06T09:29:07;98669.75;;;29.85;48.38
33697;BME280;20031;43.416;23.232;2023-08-06T09:31:40;98661.38;;;30.20;47.80
33697;BME280;20031;43.416;23.232;2023-08-06T09:34:11;98649.13;;;30.56;46.27
33697;BME280;20031;43.416;23.232;2023-08-06T09:36:42;98651.72;;;30.82;46.50
33697;BME280;20031;43.416;23.232;2023-08-06T09:39:16;98655.00;;;30.33;44.88
33697;BME280;20031;43.416;23.232;2023-08-06T09:41:45;98657.59;;;29.88;45.75
33697;BME280;20031;43.416;23.232;2023-08-06T09:44:18;98655.16;;;29.36;46.41
33697;BME280;20031;43.416;23.232;2023-08-06T09:46:48;98666.63;;;29.28;47.35
33697;BME280;20031;43.416;23.232;2023-08-06T09:49:15;98655.03;;;29.74;47.60
33697;BME280;20031;43.416;23.232;2023-08-06T09:51:41;98654.88;;;29.71;46.37
33697;BME280;20031;43.416;23.232;2023-08-06T09:54:07;98657.88;;;29.78;46.59
33697;BME280;20031;43.416;23.232;2023-08-06T09:56:34;98659.75;;;29.52;47.11
33697;BME280;20031;43.416;23.232;2023-08-06T09:59:04;98656.78;;;29.53;47.56
33697;BME280;20031;43.416;23.232;2023-08-06T10:01:33;98665.91;;;29.52;47.55
33697;BME280;20031;43.416;23.232;2023-08-06T10:04:00;98672.53;;;29.46;47.88
33697;BME280;20031;43.416;23.232;2023-08-06T10:06:26;98661.69;;;30.19;46.58
33697;BME280;20031;43.416;23.232;2023-08-06T10:08:53;98662.56;;;30.56;45.70
33697;BME280;20031;43.416;23.232;2023-08-06T10:11:22;98668.16;;;30.26;45.60
33697;BME280;20031;43.416;23.232;2023-08-06T10:13:50;98681.47;;;30.06;45.54
33697;BME280;20031;43.416;23.232;2023-08-06T10:16:17;98687.91;;;29.16;46.39
33697;BME280;20031;43.416;23.232;2023-08-06T10:18:43;98685.72;;;28.35;49.13
33697;BME280;20031;43.416;23.232;2023-08-06T10:21:09;98691.53;;;27.94;50.76
33697;BME280;20031;43.416;23.232;2023-08-06T10:23:36;98690.31;;;27.78;51.38
33697;BME280;20031;43.416;23.232;2023-08-06T10:26:03;98695.38;;;27.66;51.67
33697;BME280;20031;43.416;23.232;2023-08-06T10:28:39;98701.75;;;27.57;51.63
33697;BME280;20031;43.416;23.232;2023-08-06T10:31:05;98705.34;;;27.52;51.53
33697;BME280;20031;43.416;23.232;2023-08-06T10:33:47;98698.19;;;27.61;51.39
33697;BME280;20031;43.416;23.232;2023-08-06T10:36:14;98699.97;;;27.87;51.56
33697;BME280;20031;43.416;23.232;2023-08-06T10:38:50;98691.16;;;28.22;51.22
33697;BME280;20031;43.416;23.232;2023-08-06T10:41:22;98674.13;;;28.48;49.96
33697;BME280;20031;43.416;23.232;2023-08-06T10:43:48;98669.19;;;28.64;49.49
33697;BME280;20031;43.416;23.232;2023-08-06T10:46:26;98663.97;;;28.89;48.75
33697;BME280;20031;43.416;23.232;2023-08-06T10:48:52;98671.66;;;28.82;49.64
33697;BME280;20031;43.416;23.232;2023-08-06T10:51:17;98671.13;;;29.02;50.08
33697;BME280;20031;43.416;23.232;2023-08-06T10:53:49;98685.25;;;29.24;49.66
33697;BME280;20031;43.416;23.232;2023-08-06T10:56:16;98691.00;;;29.01;49.39
33697;BME280;20031;43.416;23.232;2023-08-06T10:58:43;98686.69;;;28.61;49.64
33697;BME280;20031;43.416;23.232;2023-08-06T11:01:10;98681.84;;;28.20;50.56
33697;BME280;20031;43.416;23.232;2023-08-06T11:03:36;98685.22;;;27.90;50.98
33697;BME280;20031;43.416;23.232;2023-08-06T11:06:02;98681.31;;;27.74;51.24
33697;BME280;20031;43.416;23.232;2023-08-06T11:08:32;98690.25;;;27.56;51.72
33697;BME280;20031;43.416;23.232;2023-08-06T11:11:11;98690.34;;;27.38;52.45
33697;BME280;20031;43.416;23.232;2023-08-06T11:13:38;98697.19;;;27.30;52.54
33697;BME280;20031;43.416;23.232;2023-08-06T11:16:05;98708.09;;;27.21;52.17
33697;BME280;20031;43.416;23.232;2023-08-06T11:18:31;98727.44;;;27.04;53.01
33697;BME280;20031;43.416;23.232;2023-08-06T11:20:59;98745.06;;;26.73;55.88
33697;BME280;20031;43.416;23.232;2023-08-06T11:23:29;98746.94;;;26.23;57.52
33697;BME280;20031;43.416;23.232;2023-08-06T11:25:56;98748.81;;;25.86;59.74
33697;BME280;20031;43.416;23.232;2023-08-06T11:28:21;98744.63;;;25.80;62.17
33697;BME280;20031;43.416;23.232;2023-08-06T11:30:48;98766.13;;;25.70;62.82
33697;BME280;20031;43.416;23.232;2023-08-06T11:33:14;98761.28;;;25.72;62.97
33697;BME280;20031;43.416;23.232;2023-08-06T11:35:39;98748.47;;;25.92;64.77
33697;BME280;20031;43.416;23.232;2023-08-06T11:38:05;98735.84;;;25.98;64.76
33697;BME280;20031;43.416;23.232;2023-08-06T11:40:35;98735.19;;;26.06;64.70
33697;BME280;20031;43.416;23.232;2023-08-06T11:43:01;98728.47;;;25.90;65.00
33697;BME280;20031;43.416;23.232;2023-08-06T11:45:26;98730.13;;;25.86;65.43
33697;BME280;20031;43.416;23.232;2023-08-06T11:47:53;98726.75;;;25.99;65.74
33697;BME280;20031;43.416;23.232;2023-08-06T11:50:27;98736.19;;;25.91;65.00
33697;BME280;20031;43.416;23.232;2023-08-06T11:53:01;98731.59;;;26.33;64.54
33697;BME280;20031;43.416;23.232;2023-08-06T11:55:31;98714.09;;;26.86;63.73
33697;BME280;20031;43.416;23.232;2023-08-06T11:58:06;98708.28;;;27.37;63.06
33697;BME280;20031;43.416;23.232;2023-08-06T12:00:38;98699.59;;;27.94;60.25
33697;BME280;20031;43.416;23.232;2023-08-06T12:03:07;98702.44;;;28.11;57.98
33697;BME280;20031;43.416;23.232;2023-08-06T12:05:39;98701.13;;;28.52;55.26
33697;BME280;20031;43.416;23.232;2023-08-06T12:08:09;98704.28;;;28.54;54.33
33697;BME280;20031;43.416;23.232;2023-08-06T12:10:36;98697.66;;;28.73;55.08
33697;BME280;20031;43.416;23.232;2023-08-06T12:13:01;98685.97;;;29.08;54.14
33697;BME280;20031;43.416;23.232;2023-08-06T12:15:28;98690.88;;;29.14;54.86
33697;BME280;20031;43.416;23.232;2023-08-06T12:17:53;98691.00;;;29.01;53.53
33697;BME280;20031;43.416;23.232;2023-08-06T12:20:19;98688.63;;;28.99;53.56
33697;BME280;20031;43.416;23.232;2023-08-06T12:22:44;98687.09;;;29.07;52.48
33697;BME280;20031;43.416;23.232;2023-08-06T12:25:11;98672.56;;;29.16;51.78
33697;BME280;20031;43.416;23.232;2023-08-06T12:27:39;98672.31;;;29.26;51.42
33697;BME280;20031;43.416;23.232;2023-08-06T12:30:05;98667.47;;;29.37;51.97
33697;BME280;20031;43.416;23.232;2023-08-06T12:32:31;98666.09;;;29.81;50.97
33697;BME280;20031;43.416;23.232;2023-08-06T12:34:57;98660.44;;;30.08;50.11
33697;BME280;20031;43.416;23.232;2023-08-06T12:37:24;98664.97;;;30.41;49.15
33697;BME280;20031;43.416;23.232;2023-08-06T12:39:50;98660.81;;;30.60;49.52
33697;BME280;20031;43.416;23.232;2023-08-06T12:42:15;98659.22;;;30.59;47.63
33697;BME280;20031;43.416;23.232;2023-08-06T12:44:41;98659.72;;;30.61;48.55
33697;BME280;20031;43.416;23.232;2023-08-06T12:47:07;98653.28;;;30.45;45.86
33697;BME280;20031;43.416;23.232;2023-08-06T12:49:33;98641.00;;;30.73;46.43
33697;BME280;20031;43.416;23.232;2023-08-06T12:51:58;98640.84;;;30.78;46.36
33697;BME280;20031;43.416;23.232;2023-08-06T12:54:28;98647.63;;;30.76;47.94
33697;BME280;20031;43.416;23.232;2023-08-06T12:56:54;98639.25;;;30.77;47.46
33697;BME280;20031;43.416;23.232;2023-08-06T12:59:19;98624.66;;;30.87;47.92